Terminal Aerodrome Forecast
Issued by NWS

Home | Current Version | Previous Version | Text Only | Print | Product List | Glossary On
Versions: 1 2 3 4 5 6 7 8 9 10 11 12 13 14 15 16 17 18 19
000
FTUS44 KHGX 262338
TAFLBX
TAF
KLBX 262338Z 2700/2724 01004KT P6SM SCT050 BKN150
     FM270600 36008KT P6SM SCT015 OVC025
      TEMPO 2710/2713 4SM BR SCT007 OVC015
     FM271600 01006KT P6SM BKN025 BKN050
     FM271900 01008KT P6SM BKN050=

USA.gov is the U.S. government's official web portal to all federal, state and local government web resources and services.